Time;durP1;ratioP1;P1;durP2;ratioP2;P2;SDS_P1;SDS_P2;PMS_P1;PMS_P2;Temp;Humidity;BMP_temperature;BMP_pressure;BME280_temperature;BME280_humidity;BME280_pressure;Samples;Min_cycle;Max_cycle;Signal;HPM_P1;HPM_P2
2022/04/01 00:01:05;;;;;;;3.07;2.30;;;1.90;99.90;;;;;;4935592;29;20904;-77
2022/04/01 00:03:35;;;;;;;3.60;2.50;;;1.90;99.90;;;;;;4935524;29;20455;-77
2022/04/01 00:06:03;;;;;;;3.37;2.30;;;1.90;99.90;;;;;;4937261;29;20496;-77
2022/04/01 00:08:31;;;;;;;4.10;2.33;;;1.90;99.90;;;;;;4936572;29;20466;-76
2022/04/01 00:11:00;;;;;;;4.73;2.67;;;1.90;99.90;;;;;;4951425;28;21077;-77
2022/04/01 00:13:28;;;;;;;3.30;2.40;;;1.90;99.90;;;;;;4935402;29;21026;-77
2022/04/01 00:15:56;;;;;;;6.10;2.67;;;1.90;99.90;;;;;;4936566;29;20968;-77
2022/04/01 00:18:25;;;;;;;3.77;2.70;;;1.90;99.90;;;;;;4936623;29;20568;-77
2022/04/01 00:20:54;;;;;;;3.30;2.37;;;1.90;99.90;;;;;;4936536;28;21020;-77
2022/04/01 00:23:23;;;;;;;4.13;2.57;;;1.90;99.90;;;;;;4935267;29;20516;-77
2022/04/01 00:25:51;;;;;;;3.20;2.40;;;1.90;99.90;;;;;;4945375;29;20534;-77
2022/04/01 00:28:19;;;;;;;3.50;2.90;;;1.90;99.90;;;;;;4935230;29;20447;-77
2022/04/01 00:30:48;;;;;;;4.17;2.60;;;1.90;99.90;;;;;;4950404;28;20456;-77
2022/04/01 00:33:17;;;;;;;4.87;2.70;;;1.90;99.90;;;;;;4936276;29;20476;-77
2022/04/01 00:35:45;;;;;;;4.10;2.13;;;1.90;99.90;;;;;;4935129;29;20464;-77
2022/04/01 00:38:15;;;;;;;3.53;2.20;;;1.90;99.90;;;;;;4936657;29;20494;-77
2022/04/01 00:40:43;;;;;;;4.67;2.73;;;1.90;99.90;;;;;;4951143;29;20461;-77
2022/04/01 00:43:11;;;;;;;3.50;2.83;;;1.90;99.90;;;;;;4935053;29;20448;-77
2022/04/01 00:45:40;;;;;;;6.80;2.60;;;1.90;99.90;;;;;;4934864;29;20468;-77
2022/04/01 00:48:08;;;;;;;3.40;2.20;;;1.90;99.90;;;;;;4936492;29;20534;-77
2022/04/01 00:50:37;;;;;;;4.73;2.37;;;1.90;99.90;;;;;;4934487;29;20514;-76
2022/04/01 00:53:06;;;;;;;4.33;2.40;;;1.80;99.90;;;;;;4934886;29;20466;-77
2022/04/01 00:55:37;;;;;;;3.57;2.50;;;1.80;99.90;;;;;;4935128;29;20494;-77
2022/04/01 00:58:08;;;;;;;3.23;2.27;;;1.80;99.90;;;;;;4950959;29;20452;-77
2022/04/01 01:00:36;;;;;;;5.27;2.70;;;1.80;99.90;;;;;;4936212;29;20520;-77
2022/04/01 01:03:05;;;;;;;3.10;2.10;;;1.80;99.90;;;;;;4950851;29;20459;-77
2022/04/01 01:05:34;;;;;;;4.43;2.83;;;1.80;99.90;;;;;;4934861;29;20596;-77
2022/04/01 01:08:05;;;;;;;4.93;2.97;;;1.80;99.90;;;;;;4936399;29;20507;-77
2022/04/01 01:10:36;;;;;;;2.77;2.00;;;1.80;99.90;;;;;;4933681;29;20485;-77
2022/04/01 01:13:05;;;;;;;3.23;2.33;;;1.80;99.90;;;;;;4935394;29;20952;-77
2022/04/01 01:15:34;;;;;;;4.63;2.30;;;1.80;99.90;;;;;;4934696;29;20478;-77
2022/04/01 01:18:02;;;;;;;8.37;3.20;;;1.80;99.90;;;;;;4936003;29;20447;-77
2022/04/01 01:20:30;;;;;;;2.43;2.10;;;1.80;99.90;;;;;;4935134;29;20520;-77
2022/04/01 01:22:59;;;;;;;3.53;2.20;;;1.80;99.90;;;;;;4950873;28;20512;-77
2022/04/01 01:25:28;;;;;;;4.20;3.33;;;1.80;99.90;;;;;;4947365;28;20534;-77
2022/04/01 01:27:57;;;;;;;4.23;2.17;;;1.80;99.90;;;;;;4934738;29;20551;-77
2022/04/01 01:30:26;;;;;;;4.70;2.23;;;1.80;99.90;;;;;;4934998;29;20533;-77
2022/04/01 01:32:55;;;;;;;3.97;2.17;;;1.80;99.90;;;;;;4934719;29;20454;-77
2022/04/01 01:35:23;;;;;;;4.37;2.10;;;1.80;99.90;;;;;;4935813;29;21139;-77
2022/04/01 01:37:51;;;;;;;3.53;2.40;;;1.80;99.90;;;;;;4934677;29;20493;-77
2022/04/01 01:40:20;;;;;;;3.53;2.07;;;1.80;99.90;;;;;;4934307;29;20494;-77
2022/04/01 01:42:49;;;;;;;2.43;1.93;;;1.80;99.90;;;;;;4937651;29;20448;-76
2022/04/01 01:45:19;;;;;;;3.20;2.10;;;1.80;99.90;;;;;;4939365;29;20459;-77
2022/04/01 01:47:48;;;;;;;6.83;2.60;;;1.80;99.90;;;;;;4938083;29;20452;-77
2022/04/01 01:55:48;;;;;;;3.00;2.03;;;1.80;99.90;;;;;;4937883;29;20484;-77
2022/04/01 01:58:18;;;;;;;3.43;1.97;;;1.80;99.90;;;;;;4938032;29;20447;-77
2022/04/01 02:00:46;;;;;;;2.80;1.63;;;1.80;99.90;;;;;;4937532;29;20498;-76
2022/04/01 02:03:14;;;;;;;3.03;2.27;;;1.80;99.90;;;;;;4937692;29;20457;-76
2022/04/01 02:05:43;;;;;;;3.43;2.23;;;1.90;99.90;;;;;;4937778;29;20476;-77
2022/04/01 02:08:11;;;;;;;3.07;2.00;;;1.90;99.90;;;;;;4937820;29;20970;-77
2022/04/01 02:10:40;;;;;;;4.30;1.83;;;1.90;99.90;;;;;;4937773;29;20960;-77
2022/04/01 02:13:08;;;;;;;2.47;1.70;;;1.90;99.90;;;;;;4937743;29;20496;-77
2022/04/01 02:15:38;;;;;;;3.13;1.40;;;1.90;99.90;;;;;;4937439;29;20475;-76
2022/04/01 02:18:07;;;;;;;3.33;1.90;;;1.90;99.90;;;;;;4937623;29;20472;-76
2022/04/01 02:20:36;;;;;;;4.80;2.40;;;1.90;99.90;;;;;;4937843;29;20471;-77
2022/04/01 02:23:04;;;;;;;2.40;1.80;;;1.90;99.90;;;;;;4937638;29;20554;-76
2022/04/01 02:25:33;;;;;;;2.53;1.90;;;2.00;99.90;;;;;;4937460;29;20467;-76
2022/04/01 02:28:01;;;;;;;2.77;1.83;;;2.00;99.90;;;;;;4937330;29;20958;-77
2022/04/01 02:30:31;;;;;;;3.10;2.50;;;2.00;99.90;;;;;;4937466;29;20479;-76
2022/04/01 02:33:24;;;;;;;2.27;1.90;;;2.00;99.90;;;;;;4911855;29;20934;-77
2022/04/01 02:35:58;;;;;;;2.77;2.00;;;2.00;99.90;;;;;;4937194;29;20515;-78
2022/04/01 02:38:29;;;;;;;3.37;2.07;;;2.00;99.90;;;;;;4937268;29;20449;-77
2022/04/01 02:40:58;;;;;;;2.60;2.00;;;2.00;99.90;;;;;;4953532;29;20455;-77
2022/04/01 02:43:31;;;;;;;3.37;1.87;;;2.00;99.90;;;;;;4937152;29;20457;-77
2022/04/01 02:45:59;;;;;;;2.20;1.67;;;2.00;99.90;;;;;;4937236;29;20447;-77
2022/04/01 02:48:30;;;;;;;3.40;1.87;;;2.00;99.90;;;;;;4937048;29;20464;-77
2022/04/01 02:51:25;;;;;;;4.30;2.30;;;2.00;99.90;;;;;;4914559;29;20536;-77
2022/04/01 02:53:56;;;;;;;4.20;2.13;;;2.00;99.90;;;;;;4938640;29;20488;-77
2022/04/01 02:56:24;;;;;;;4.50;2.07;;;2.10;99.90;;;;;;4936917;29;20479;-77
2022/04/01 02:58:52;;;;;;;4.10;2.40;;;2.10;99.90;;;;;;4937006;29;20482;-77
2022/04/01 03:01:22;;;;;;;3.10;2.27;;;2.10;99.80;;;;;;4936745;29;20507;-77
2022/04/01 03:03:52;;;;;;;3.30;2.00;;;2.10;99.80;;;;;;4936654;29;20455;-77
2022/04/01 03:06:24;;;;;;;4.10;2.07;;;2.10;99.80;;;;;;4936967;29;20519;-77
2022/04/01 03:08:53;;;;;;;2.73;2.07;;;2.10;99.80;;;;;;4936829;29;20492;-77
2022/04/01 03:11:21;;;;;;;3.17;2.30;;;2.10;99.80;;;;;;4930288;29;20463;-77
2022/04/01 03:13:50;;;;;;;3.07;2.20;;;2.10;99.70;;;;;;4930507;29;20456;-77
2022/04/01 03:16:51;;;;;;;3.70;3.00;;;2.10;99.70;;;;;;4936244;29;20451;-77
2022/04/01 03:19:22;;;;;;;3.27;2.80;;;2.10;99.70;;;;;;4938513;29;20491;-77
2022/04/01 03:21:50;;;;;;;3.73;2.67;;;2.10;99.70;;;;;;4956142;29;20458;-77
2022/04/01 03:24:19;;;;;;;4.00;2.50;;;2.10;99.70;;;;;;4959688;29;20478;-77
2022/04/01 03:26:49;;;;;;;4.30;2.67;;;2.10;99.70;;;;;;4959771;29;20437;-76
2022/04/01 03:29:19;;;;;;;3.53;2.23;;;2.10;99.80;;;;;;4958948;29;20456;-76
2022/04/01 03:31:48;;;;;;;3.93;2.60;;;2.10;99.80;;;;;;4922077;29;20468;-76
2022/04/01 03:34:18;;;;;;;2.93;2.27;;;2.10;99.90;;;;;;4932192;29;20505;-76
2022/04/01 03:36:48;;;;;;;4.07;3.20;;;2.00;99.90;;;;;;4938919;29;20453;-76
2022/04/01 03:39:18;;;;;;;3.93;2.60;;;2.10;99.90;;;;;;4937062;29;20456;-77
2022/04/01 03:41:52;;;;;;;4.17;2.70;;;2.00;99.90;;;;;;4936187;29;20500;-77
2022/04/01 03:44:21;;;;;;;4.03;2.80;;;2.00;99.90;;;;;;4936257;29;20888;-78
2022/04/01 03:47:20;;;;;;;3.70;2.37;;;2.00;99.90;;;;;;4952303;28;20812;-77
2022/04/01 03:49:52;;;;;;;5.33;2.60;;;2.00;99.90;;;;;;4935620;29;20514;-77
2022/04/01 03:52:25;;;;;;;5.03;2.30;;;2.00;99.90;;;;;;4935976;29;20455;-77
2022/04/01 03:54:56;;;;;;;4.07;2.37;;;2.00;99.90;;;;;;4935658;29;20484;-77
2022/04/01 03:57:45;;;;;;;3.27;2.37;;;2.00;99.90;;;;;;4918671;29;21019;-77
2022/04/01 04:00:46;;;;;;;3.50;2.30;;;2.00;99.90;;;;;;4917152;29;20456;-77
2022/04/01 04:03:15;;;;;;;5.10;2.40;;;2.00;99.90;;;;;;4916569;29;20453;-77
2022/04/01 04:05:48;;;;;;;3.73;2.10;;;2.00;99.90;;;;;;4916931;29;20454;-77
2022/04/01 04:08:20;;;;;;;3.07;1.90;;;2.00;99.90;;;;;;4916677;29;20502;-77
2022/04/01 04:10:49;;;;;;;4.50;1.97;;;2.00;99.90;;;;;;4925350;29;20461;-76
2022/04/01 04:13:41;;;;;;;3.30;2.03;;;1.90;99.90;;;;;;4935427;29;20542;-77
2022/04/01 04:16:19;;;;;;;5.33;2.43;;;1.90;99.90;;;;;;4951545;29;20476;-77
2022/04/01 04:18:52;;;;;;;3.33;2.03;;;1.90;99.90;;;;;;4935732;29;20988;-77
2022/04/01 04:21:30;;;;;;;3.00;2.43;;;1.90;99.90;;;;;;4951357;29;20544;-77
2022/04/01 04:24:01;;;;;;;3.17;2.20;;;1.90;99.90;;;;;;4935496;29;20472;-77
2022/04/01 04:26:38;;;;;;;3.80;2.10;;;1.90;99.90;;;;;;4935371;29;20534;-77
2022/04/01 04:29:10;;;;;;;2.97;2.20;;;1.90;99.90;;;;;;4936378;29;20451;-77
2022/04/01 04:32:13;;;;;;;2.37;1.80;;;2.00;99.90;;;;;;4932222;29;20451;-77
2022/04/01 04:34:48;;;;;;;4.77;2.90;;;2.00;99.90;;;;;;4928600;29;20473;-77
2022/04/01 04:37:25;;;;;;;3.80;2.37;;;2.00;99.90;;;;;;4916338;29;20444;-77
2022/04/01 04:39:54;;;;;;;3.87;2.00;;;2.00;99.80;;;;;;4947665;29;20458;-77
2022/04/01 04:42:23;;;;;;;3.90;2.30;;;2.00;99.80;;;;;;4936205;29;20440;-77
2022/04/01 04:44:54;;;;;;;2.70;1.80;;;2.00;99.70;;;;;;4935028;29;20503;-77
2022/04/01 04:47:26;;;;;;;3.20;1.73;;;2.00;99.60;;;;;;4935268;29;20462;-77
2022/04/01 04:49:57;;;;;;;3.13;1.60;;;2.00;99.60;;;;;;4937055;29;20462;-77
2022/04/01 04:52:31;;;;;;;3.00;1.97;;;2.00;99.50;;;;;;4935783;29;20540;-76
2022/04/01 04:55:07;;;;;;;3.33;1.50;;;2.10;99.40;;;;;;4934847;29;20476;-77
2022/04/01 04:58:03;;;;;;;3.10;1.90;;;2.10;99.30;;;;;;4913402;29;20449;-77
2022/04/01 05:00:31;;;;;;;2.97;1.30;;;2.10;99.20;;;;;;4915965;29;20471;-77
2022/04/01 05:03:28;;;;;;;2.40;1.20;;;2.10;99.10;;;;;;4916132;29;21036;-77
2022/04/01 05:06:06;;;;;;;4.00;1.30;;;2.20;99.00;;;;;;4916236;29;20451;-77
2022/04/01 05:09:07;;;;;;;3.03;1.60;;;2.20;98.80;;;;;;4916183;29;20448;-77
2022/04/01 05:11:54;;;;;;;2.63;1.57;;;2.20;98.90;;;;;;4916094;29;20457;-77
2022/04/01 05:15:05;;;;;;;5.97;1.53;;;2.20;98.80;;;;;;4934972;29;20491;-76
2022/04/01 05:17:36;;;;;;;5.97;1.97;;;2.20;98.70;;;;;;4937271;29;20467;-77
2022/04/01 05:20:15;;;;;;;3.10;1.40;;;2.20;98.70;;;;;;4938335;29;20456;-76
2022/04/01 05:22:59;;;;;;;4.20;2.30;;;2.30;98.80;;;;;;4938358;29;20475;-77
2022/04/01 05:25:32;;;;;;;3.97;1.80;;;2.30;98.70;;;;;;4938348;29;20488;-77
2022/04/01 05:28:11;;;;;;;2.73;1.83;;;2.30;98.70;;;;;;4938671;29;20450;-77
2022/04/01 05:30:47;;;;;;;4.80;2.17;;;2.30;98.70;;;;;;4938345;29;20463;-77
2022/04/01 05:33:19;;;;;;;4.00;2.27;;;2.30;98.70;;;;;;4938387;29;20453;-77
2022/04/01 05:35:51;;;;;;;4.10;2.13;;;2.30;98.70;;;;;;4938449;29;20478;-77
2022/04/01 05:38:25;;;;;;;3.40;2.20;;;2.30;98.70;;;;;;4939106;29;20460;-77
2022/04/01 05:40:55;;;;;;;4.77;2.50;;;2.30;98.70;;;;;;4939695;29;20429;-77
2022/04/01 05:43:26;;;;;;;4.10;2.23;;;2.30;98.60;;;;;;4936113;29;21060;-77
2022/04/01 05:46:17;;;;;;;4.33;2.27;;;2.40;98.70;;;;;;4933984;29;20449;-81
2022/04/01 05:48:47;;;;;;;4.00;2.53;;;2.40;98.70;;;;;;4953972;29;20464;-77
2022/04/01 05:51:16;;;;;;;3.83;3.43;;;2.40;98.70;;;;;;4934847;29;20804;-77
2022/04/01 05:53:51;;;;;;;4.80;3.53;;;2.40;98.60;;;;;;4919159;29;20449;-77
2022/04/01 05:56:21;;;;;;;6.43;3.40;;;2.40;98.50;;;;;;4919398;29;20472;-77
2022/04/01 05:58:52;;;;;;;7.63;3.33;;;2.40;98.50;;;;;;4938006;29;20522;-77
2022/04/01 06:01:31;;;;;;;9.13;3.97;;;2.40;98.50;;;;;;4938201;29;20498;-77
2022/04/01 06:04:30;;;;;;;6.07;3.97;;;2.50;98.50;;;;;;4938185;29;20475;-77
2022/04/01 06:07:09;;;;;;;7.43;3.80;;;2.50;98.30;;;;;;4938361;29;20798;-77
2022/04/01 06:09:47;;;;;;;6.57;3.70;;;2.50;98.50;;;;;;4937739;29;20904;-77
2022/04/01 06:13:02;;;;;;;7.17;4.30;;;2.50;98.30;;;;;;4938757;29;20462;-77
2022/04/01 06:16:20;;;;;;;5.90;4.33;;;2.50;98.30;;;;;;4914030;29;20478;-77
2022/04/01 06:18:54;;;;;;;8.37;4.60;;;2.60;98.30;;;;;;4924505;29;20931;-77
2022/04/01 06:21:25;;;;;;;7.40;4.20;;;2.60;98.30;;;;;;4935904;29;20483;-77
2022/04/01 06:24:08;;;;;;;4.83;3.53;;;2.60;98.20;;;;;;4937710;29;20451;-77
2022/04/01 06:26:47;;;;;;;7.43;3.60;;;2.60;98.20;;;;;;4932186;29;20467;-77
2022/04/01 06:29:39;;;;;;;5.50;3.73;;;2.70;98.20;;;;;;4936433;29;20482;-77
2022/04/01 06:32:14;;;;;;;4.10;3.37;;;2.70;98.10;;;;;;4948854;29;20447;-77
2022/04/01 06:34:56;;;;;;;5.13;4.03;;;2.70;98.00;;;;;;4937548;29;20511;-77
2022/04/01 06:37:48;;;;;;;4.20;3.17;;;2.70;98.00;;;;;;4918589;29;20559;-77
2022/04/01 06:40:22;;;;;;;3.33;2.90;;;2.80;98.00;;;;;;4940036;29;20882;-77
2022/04/01 06:42:53;;;;;;;6.00;3.40;;;2.80;97.90;;;;;;4937840;29;20489;-77
2022/04/01 06:45:45;;;;;;;5.53;3.70;;;2.80;97.90;;;;;;4932510;29;20479;-77
2022/04/01 06:48:30;;;;;;;6.93;4.10;;;2.90;97.90;;;;;;4938720;29;20928;-77
2022/04/01 06:51:16;;;;;;;4.60;3.60;;;2.90;98.20;;;;;;4938508;29;21063;-77
2022/04/01 06:54:03;;;;;;;5.27;3.50;;;3.00;97.90;;;;;;4938136;29;20812;-77
2022/04/01 06:56:50;;;;;;;3.60;2.87;;;3.00;97.90;;;;;;4938475;29;20995;-77
2022/04/01 06:59:20;;;;;;;6.17;3.20;;;3.00;98.00;;;;;;4936754;29;20530;-78
2022/04/01 07:01:48;;;;;;;6.83;3.40;;;3.00;98.00;;;;;;4937362;29;20518;-77
2022/04/01 07:04:19;;;;;;;5.20;3.83;;;3.10;98.00;;;;;;4936661;29;20484;-77
2022/04/01 07:06:48;;;;;;;5.20;3.73;;;3.10;98.00;;;;;;4929260;29;20810;-77
2022/04/01 07:09:16;;;;;;;4.03;2.90;;;3.10;98.30;;;;;;4936593;29;21001;-77
2022/04/01 07:11:44;;;;;;;6.77;3.40;;;3.10;98.10;;;;;;4938150;29;20547;-76
2022/04/01 07:14:12;;;;;;;5.57;3.43;;;3.20;98.20;;;;;;4938107;29;20462;-77
2022/04/01 07:16:41;;;;;;;6.60;4.03;;;3.20;98.20;;;;;;4936496;29;20505;-77
2022/04/01 07:19:11;;;;;;;4.80;3.37;;;3.20;98.10;;;;;;4938347;29;20427;-77
2022/04/01 07:21:41;;;;;;;6.43;3.33;;;3.20;98.10;;;;;;4937635;29;20454;-78
2022/04/01 07:24:09;;;;;;;6.67;3.70;;;3.20;98.40;;;;;;4937743;29;20479;-77
2022/04/01 07:26:38;;;;;;;5.50;3.30;;;3.30;98.20;;;;;;4927759;29;20456;-78
2022/04/01 07:29:06;;;;;;;5.00;2.77;;;3.30;98.20;;;;;;4930578;29;20912;-77
2022/04/01 07:34:40;;;;;;;7.70;4.20;;;3.30;98.20;;;;;;4933210;29;20541;-77
2022/04/01 07:37:11;;;;;;;5.50;3.20;;;3.30;98.20;;;;;;4932952;29;20509;-77
2022/04/01 07:39:39;;;;;;;6.20;3.50;;;3.40;98.30;;;;;;4929854;29;20493;-78
2022/04/01 07:42:08;;;;;;;6.00;3.60;;;3.40;98.30;;;;;;4937564;29;20933;-77
2022/04/01 07:44:36;;;;;;;8.23;3.70;;;3.40;98.30;;;;;;4937245;29;20466;-78
2022/04/01 07:47:09;;;;;;;5.07;3.33;;;3.50;98.30;;;;;;4936064;29;20490;-77
2022/04/01 07:49:37;;;;;;;4.13;3.40;;;3.50;98.30;;;;;;4935795;29;20466;-77
2022/04/01 07:52:23;;;;;;;4.30;3.90;;;3.50;98.40;;;;;;4934142;29;20466;-78
2022/04/01 07:54:52;;;;;;;6.00;4.07;;;3.60;98.50;;;;;;4936353;29;21059;-77
2022/04/01 07:57:21;;;;;;;4.00;3.60;;;3.60;98.40;;;;;;4937206;29;20510;-77
2022/04/01 07:59:49;;;;;;;3.90;3.30;;;3.60;98.40;;;;;;4938685;29;20807;-78
2022/04/01 08:02:18;;;;;;;9.90;3.63;;;3.70;98.40;;;;;;4959937;29;20462;-77
2022/04/01 08:04:46;;;;;;;5.90;3.67;;;3.70;98.40;;;;;;4960261;28;20823;-77
2022/04/01 08:07:16;;;;;;;4.10;3.13;;;3.70;98.50;;;;;;4975349;28;20429;-78
2022/04/01 08:09:45;;;;;;;5.03;4.00;;;3.80;98.50;;;;;;4951756;29;20478;-77
2022/04/01 08:12:15;;;;;;;5.07;4.00;;;3.80;98.50;;;;;;4958622;28;20459;-77
2022/04/01 08:14:44;;;;;;;4.67;4.00;;;3.90;98.60;;;;;;4958246;29;20825;-77
2022/04/01 08:17:14;;;;;;;5.83;4.10;;;3.90;98.60;;;;;;4938874;29;20984;-77
2022/04/01 08:19:44;;;;;;;4.73;3.47;;;4.00;98.60;;;;;;4937637;29;20447;-77
2022/04/01 08:22:12;;;;;;;5.13;3.93;;;3.90;98.60;;;;;;4938062;29;20459;-77
2022/04/01 08:24:41;;;;;;;7.10;3.97;;;4.00;98.70;;;;;;4937988;29;20459;-77
2022/04/01 08:27:11;;;;;;;7.63;4.10;;;4.00;98.60;;;;;;4936943;29;20526;-77
2022/04/01 08:29:39;;;;;;;5.80;3.83;;;4.10;98.70;;;;;;4935159;29;20475;-77
2022/04/01 08:32:09;;;;;;;7.47;4.37;;;4.10;98.70;;;;;;4935456;29;20530;-77
2022/04/01 08:34:38;;;;;;;5.47;4.73;;;4.20;98.80;;;;;;4935146;29;20494;-77
2022/04/01 08:37:07;;;;;;;7.90;5.10;;;4.20;98.70;;;;;;4936324;29;20466;-77
2022/04/01 08:39:36;;;;;;;5.50;4.33;;;4.20;98.70;;;;;;4931385;29;20455;-77
2022/04/01 08:42:05;;;;;;;6.10;3.80;;;4.30;98.70;;;;;;4936751;29;20451;-77
2022/04/01 08:44:37;;;;;;;5.20;4.00;;;4.30;98.70;;;;;;4917608;29;20479;-77
2022/04/01 08:47:05;;;;;;;7.10;4.80;;;4.40;98.70;;;;;;4917811;29;20499;-77
2022/04/01 08:49:34;;;;;;;5.70;4.07;;;4.40;98.70;;;;;;4916108;29;21069;-77
2022/04/01 08:52:02;;;;;;;7.00;5.10;;;4.50;98.60;;;;;;4936415;29;20455;-77
2022/04/01 08:54:32;;;;;;;5.37;4.50;;;4.50;98.60;;;;;;4935029;29;20470;-77
2022/04/01 08:57:01;;;;;;;6.00;4.70;;;4.50;98.50;;;;;;4935107;29;20818;-77
2022/04/01 08:59:31;;;;;;;6.73;5.00;;;4.60;98.60;;;;;;4935116;29;20471;-77
2022/04/01 09:02:05;;;;;;;8.13;5.00;;;4.60;98.50;;;;;;4936387;29;20873;-77
2022/04/01 09:04:34;;;;;;;5.73;4.60;;;4.70;98.50;;;;;;4934653;29;21031;-77
2022/04/01 09:07:12;;;;;;;7.03;4.90;;;4.70;98.40;;;;;;4918115;29;20503;-77
2022/04/01 09:09:41;;;;;;;6.07;4.77;;;4.70;98.20;;;;;;4924063;29;20499;-78
2022/04/01 09:12:12;;;;;;;6.93;5.10;;;4.70;98.10;;;;;;4931668;29;20559;-78
2022/04/01 09:14:41;;;;;;;7.07;4.47;;;4.80;98.20;;;;;;4931677;29;20842;-78
2022/04/01 09:17:12;;;;;;;5.40;4.50;;;4.90;98.30;;;;;;4917506;29;20445;-78
2022/04/01 09:19:48;;;;;;;9.03;5.60;;;4.90;98.20;;;;;;4917255;29;20905;-78
2022/04/01 09:22:18;;;;;;;5.10;4.60;;;5.00;98.20;;;;;;4917113;29;20436;-78
2022/04/01 09:24:57;;;;;;;7.67;5.00;;;5.00;98.10;;;;;;4932095;29;20478;-77
2022/04/01 09:27:40;;;;;;;7.67;5.40;;;5.10;98.00;;;;;;4936123;29;20534;-78
2022/04/01 09:30:11;;;;;;;6.53;4.87;;;5.10;98.00;;;;;;4934656;29;20902;-77
2022/04/01 09:32:42;;;;;;;8.20;5.30;;;5.10;98.10;;;;;;4934765;29;20452;-77
2022/04/01 09:35:11;;;;;;;5.77;5.17;;;5.20;98.30;;;;;;4936150;29;20483;-77
2022/04/01 09:37:41;;;;;;;5.67;5.07;;;5.20;98.00;;;;;;4934824;29;20906;-78
2022/04/01 09:40:12;;;;;;;7.23;5.30;;;5.30;98.00;;;;;;4934670;29;20554;-78
2022/04/01 09:42:40;;;;;;;5.83;5.03;;;5.30;97.90;;;;;;4935886;29;20495;-77
2022/04/01 09:45:09;;;;;;;8.13;5.70;;;5.30;97.90;;;;;;4947102;29;20536;-76
2022/04/01 09:47:38;;;;;;;7.17;5.50;;;5.30;97.90;;;;;;4929612;29;20462;-77
2022/04/01 09:50:18;;;;;;;6.83;5.57;;;5.30;97.80;;;;;;4940036;29;20451;-78
2022/04/01 09:52:46;;;;;;;7.53;5.30;;;5.30;97.80;;;;;;4938514;29;20435;-77
2022/04/01 09:55:15;;;;;;;6.03;5.43;;;5.40;97.70;;;;;;4935292;29;20526;-78
2022/04/01 09:57:43;;;;;;;8.00;5.70;;;5.30;97.50;;;;;;4935617;29;20459;-77
2022/04/01 10:00:12;;;;;;;12.30;5.50;;;5.40;97.40;;;;;;4934690;29;20944;-77
2022/04/01 10:02:41;;;;;;;7.07;6.37;;;5.40;97.30;;;;;;4935129;29;20456;-78
2022/04/01 10:05:11;;;;;;;5.70;5.20;;;5.40;97.10;;;;;;4936714;29;20583;-78
2022/04/01 10:07:40;;;;;;;6.73;5.70;;;5.40;96.90;;;;;;4938469;29;20831;-77
2022/04/01 10:10:09;;;;;;;6.10;5.60;;;5.50;96.80;;;;;;4939423;29;20435;-78
2022/04/01 10:12:42;;;;;;;7.67;6.70;;;5.50;96.70;;;;;;4937777;29;20562;-77
2022/04/01 10:15:11;;;;;;;8.07;6.03;;;5.50;96.70;;;;;;4939141;29;20473;-77
2022/04/01 10:17:55;;;;;;;6.97;6.30;;;5.60;96.60;;;;;;4918672;29;20802;-77
2022/04/01 10:20:29;;;;;;;8.20;6.40;;;5.60;96.50;;;;;;4937495;29;20956;-77
2022/04/01 10:22:58;;;;;;;6.80;6.10;;;5.70;96.30;;;;;;4937513;29;20457;-77
2022/04/01 10:25:32;;;;;;;7.67;6.60;;;5.70;96.10;;;;;;4938887;29;20510;-77
2022/04/01 10:28:03;;;;;;;7.57;6.73;;;5.70;95.80;;;;;;4919963;29;20775;-78
2022/04/01 10:30:32;;;;;;;7.80;6.07;;;5.70;95.70;;;;;;4918561;29;20981;-77
2022/04/01 10:33:05;;;;;;;8.77;6.53;;;5.70;96.00;;;;;;4937450;29;20483;-77
2022/04/01 10:35:37;;;;;;;6.87;5.90;;;5.80;95.80;;;;;;4937291;29;21000;-78
2022/04/01 10:38:20;;;;;;;7.10;5.93;;;5.80;95.70;;;;;;4938427;29;20434;-77
2022/04/01 10:40:50;;;;;;;7.37;6.60;;;5.90;95.70;;;;;;4937389;29;20447;-77
2022/04/01 10:43:21;;;;;;;7.83;6.23;;;5.90;95.50;;;;;;4937155;29;20451;-77
2022/04/01 10:46:02;;;;;;;8.53;6.70;;;5.90;95.30;;;;;;4938679;29;20464;-77
2022/04/01 10:51:39;;;;;;;7.33;6.47;;;5.90;95.10;;;;;;4914276;29;20475;-78
2022/04/01 10:54:35;;;;;;;8.23;5.83;;;5.90;95.10;;;;;;4939637;29;20477;-78
2022/04/01 10:57:07;;;;;;;7.90;6.70;;;5.90;95.00;;;;;;4931501;29;20894;-78
2022/04/01 10:59:41;;;;;;;7.83;5.93;;;6.00;95.10;;;;;;4936993;29;20467;-78
2022/04/01 11:02:13;;;;;;;6.97;6.07;;;6.00;95.10;;;;;;4936795;29;20455;-77
2022/04/01 11:04:43;;;;;;;6.33;5.73;;;6.00;95.00;;;;;;4930243;29;20483;-77
2022/04/01 11:07:14;;;;;;;6.67;5.97;;;6.10;94.70;;;;;;4928339;29;20464;-78
2022/04/01 11:09:47;;;;;;;8.63;6.00;;;6.10;94.60;;;;;;4937829;29;20487;-77
2022/04/01 11:12:41;;;;;;;7.07;6.47;;;6.10;94.60;;;;;;4938255;29;20534;-77
2022/04/01 11:15:28;;;;;;;6.60;5.80;;;6.20;94.70;;;;;;4921145;29;20486;-77
2022/04/01 11:18:17;;;;;;;6.27;5.67;;;6.20;94.60;;;;;;4929619;29;20448;-77
2022/04/01 11:20:57;;;;;;;6.53;5.00;;;6.30;94.60;;;;;;4934979;29;20454;-77
2022/04/01 11:23:26;;;;;;;5.23;4.83;;;6.30;94.70;;;;;;4936557;29;20514;-76
2022/04/01 11:25:58;;;;;;;5.90;5.33;;;6.30;94.70;;;;;;4936426;29;20468;-77
2022/04/01 11:28:29;;;;;;;5.90;5.27;;;6.30;94.70;;;;;;4936419;29;20440;-77
2022/04/01 11:31:25;;;;;;;7.67;5.53;;;6.20;94.70;;;;;;4936324;29;20544;-76
2022/04/01 11:34:01;;;;;;;5.17;4.60;;;6.20;94.70;;;;;;4937414;29;20428;-77
2022/04/01 11:36:31;;;;;;;5.70;5.20;;;6.20;94.80;;;;;;4937691;29;20431;-77
2022/04/01 11:39:01;;;;;;;7.57;5.07;;;6.20;94.90;;;;;;4936076;29;20520;-76
2022/04/01 11:41:54;;;;;;;5.00;4.50;;;6.20;94.90;;;;;;4936253;29;20811;-77
2022/04/01 11:44:24;;;;;;;8.43;5.33;;;6.20;95.00;;;;;;4936867;29;20471;-77
2022/04/01 11:46:54;;;;;;;6.07;4.70;;;6.20;95.00;;;;;;4936023;29;20469;-77
2022/04/01 11:49:27;;;;;;;5.70;4.80;;;6.20;94.90;;;;;;4937218;29;20447;-76
2022/04/01 11:51:55;;;;;;;4.93;4.40;;;6.20;95.00;;;;;;4937545;29;20854;-77
2022/04/01 11:54:25;;;;;;;5.50;4.23;;;6.20;95.10;;;;;;4937324;29;20479;-77
2022/04/01 11:56:54;;;;;;;6.00;4.13;;;6.30;95.10;;;;;;4936065;29;20542;-77
2022/04/01 11:59:25;;;;;;;5.10;4.40;;;6.30;95.10;;;;;;4937008;29;20555;-77
2022/04/01 12:01:58;;;;;;;5.70;4.00;;;6.30;95.10;;;;;;4937261;29;20487;-76
2022/04/01 12:04:32;;;;;;;5.40;4.10;;;6.40;95.10;;;;;;4937188;29;20595;-76
2022/04/01 12:09:58;;;;;;;5.70;4.73;;;6.40;95.00;;;;;;4936805;29;20503;-77
2022/04/01 12:12:27;;;;;;;5.27;4.23;;;6.40;94.80;;;;;;4935717;29;20455;-77
2022/04/01 12:14:56;;;;;;;6.03;4.00;;;6.40;94.80;;;;;;4937076;29;20463;-78
2022/04/01 12:17:28;;;;;;;5.50;4.00;;;6.40;95.10;;;;;;4936980;29;20463;-77
2022/04/01 12:20:09;;;;;;;4.03;3.63;;;6.50;95.00;;;;;;4935666;29;20558;-77
2022/04/01 12:22:58;;;;;;;4.60;4.00;;;6.50;95.10;;;;;;4932447;29;20461;-78
2022/04/01 12:25:29;;;;;;;5.10;3.70;;;6.60;95.00;;;;;;4918222;29;20466;-77
2022/04/01 12:28:00;;;;;;;4.33;3.47;;;6.60;94.80;;;;;;4932005;29;20521;-77
2022/04/01 12:30:34;;;;;;;4.53;4.13;;;6.60;94.70;;;;;;4917744;29;20460;-77
2022/04/01 12:33:04;;;;;;;4.40;3.97;;;6.60;94.70;;;;;;4932412;29;20461;-77
2022/04/01 12:35:33;;;;;;;7.83;3.77;;;6.60;94.70;;;;;;4928606;29;21019;-77
2022/04/01 12:38:06;;;;;;;4.70;4.30;;;6.60;94.50;;;;;;4935233;29;20966;-77
2022/04/01 12:40:48;;;;;;;6.90;4.20;;;6.60;94.40;;;;;;4936538;29;20546;-77
2022/04/01 12:43:43;;;;;;;6.10;4.10;;;6.60;94.40;;;;;;4935582;29;20804;-77
2022/04/01 12:46:14;;;;;;;3.80;3.40;;;6.60;94.30;;;;;;4935992;29;20458;-77
2022/04/01 12:48:47;;;;;;;10.97;4.07;;;6.50;94.30;;;;;;4940484;29;20443;-78
2022/04/01 12:51:20;;;;;;;4.90;4.23;;;6.50;94.20;;;;;;4945489;29;20431;-77
2022/04/01 12:54:00;;;;;;;5.00;3.73;;;6.50;94.20;;;;;;4947600;29;20420;-77
2022/04/01 12:56:33;;;;;;;4.10;3.70;;;6.50;94.20;;;;;;4946259;29;20454;-77
2022/04/01 12:59:07;;;;;;;4.80;3.33;;;6.50;94.10;;;;;;4944396;29;20487;-76
2022/04/01 13:01:37;;;;;;;5.43;3.77;;;6.40;93.80;;;;;;4939496;29;20525;-77
2022/04/01 13:04:08;;;;;;;5.17;4.23;;;6.50;93.80;;;;;;4940403;29;20470;-76
2022/04/01 13:06:37;;;;;;;4.60;3.47;;;6.50;93.90;;;;;;4956794;29;20452;-77
2022/04/01 13:09:08;;;;;;;4.10;3.20;;;6.50;94.00;;;;;;4940065;29;20862;-77
2022/04/01 13:11:40;;;;;;;3.77;3.37;;;6.50;93.80;;;;;;4936682;29;20459;-77
2022/04/01 13:14:20;;;;;;;3.53;2.97;;;6.50;93.60;;;;;;4935589;29;20495;-77
2022/04/01 13:16:49;;;;;;;3.50;3.20;;;6.50;93.50;;;;;;4936969;29;20787;-78
2022/04/01 13:19:27;;;;;;;6.13;3.40;;;6.50;93.50;;;;;;4935903;29;20443;-78
2022/04/01 13:21:57;;;;;;;5.87;3.50;;;6.50;93.50;;;;;;4948806;29;20979;-77
2022/04/01 13:24:28;;;;;;;4.70;3.00;;;6.50;93.50;;;;;;4934686;29;20463;-77
2022/04/01 13:26:58;;;;;;;4.17;3.67;;;6.50;93.20;;;;;;4934799;29;20502;-77
2022/04/01 13:29:27;;;;;;;5.50;2.80;;;6.50;93.10;;;;;;4934719;29;20894;-77
2022/04/01 13:31:55;;;;;;;3.80;2.93;;;6.40;93.10;;;;;;4935890;29;20467;-77
2022/04/01 13:34:24;;;;;;;4.93;3.27;;;6.40;93.10;;;;;;4934873;29;20848;-77
2022/04/01 13:36:52;;;;;;;5.27;3.73;;;6.50;93.20;;;;;;4934524;29;20548;-77
2022/04/01 13:39:20;;;;;;;4.90;3.43;;;6.50;93.20;;;;;;4937317;29;20457;-77
2022/04/01 13:41:48;;;;;;;4.57;3.10;;;6.50;93.20;;;;;;4938188;29;20502;-77
2022/04/01 13:44:18;;;;;;;3.60;2.77;;;6.50;93.20;;;;;;4938125;29;20504;-77